Seaboard Ocean — A8SB7 — position and weather

sailwx.info

Track history (hours):
 
Tides and Currents Weather Stations Pressure Air Temp Water Temp Dewpoint Dewpoint Depression Visibility Wind Speed Wind Dir Waves Ship Positions

Seaboard Ocean

Last reported at 2018-Feb-12 12:36 UTC. Time now 2018-Feb-19 16:02 UTC.
Position N 16°13' W 062°02'.

Length 148 m; draft 7.6 m.

Type: Ship. MMSI: 636091731.

Date/timePositionNaut miles runAvg speedWind from/ knotsBaromVisibWave heightAir tempDewpointWater temp
2018-Feb-12 12:36N 16°13' W 062°02'216.0
2018-Feb-12 12:30N 16°14' W 062°02'816.2
2018-Feb-12 12:00N 16°22' W 062°02'816.1
2018-Feb-12 11:30N 16°30' W 062°02'816.3
2018-Feb-12 11:00N 16°38' W 062°01'816.4
2018-Feb-12 10:30N 16°46' W 062°01'816.5
2018-Feb-12 10:00N 16°55' W 061°59'817.0
2018-Feb-12 09:30N 17°03' W 061°58'713.1
2018-Feb-12 09:00N 17°09' W 061°55'4 7.5
2018-Feb-12 08:30N 17°07' W 061°51'0 0.0
2018-Feb-12 07:56N 17°08' W 061°51'0 0.0
2018-Feb-12 07:29N 17°08' W 061°51'0 0.0
2018-Feb-12 06:58N 17°08' W 061°51'0 0.0
2018-Feb-12 06:28N 17°08' W 061°51'0 0.0
2018-Feb-12 05:58N 17°08' W 061°51'0 0.0
2018-Feb-12 05:28N 17°08' W 061°51'0 0.0
2018-Feb-12 05:00N 17°08' W 061°51'0 0.0
2018-Feb-12 04:30N 17°08' W 061°51'0 0.0
2018-Feb-12 04:00N 17°08' W 061°51'0 0.0
2018-Feb-12 03:30N 17°08' W 061°51'0 0.0
2018-Feb-12 02:57N 17°08' W 061°51'0 0.0
2018-Feb-12 02:29N 17°08' W 061°51'0 0.0
2018-Feb-12 01:59N 17°08' W 061°51'0 0.0
2018-Feb-12 01:26N 17°08' W 061°51'0 0.0
2018-Feb-12 00:59N 17°08' W 061°51'0 0.0
2018-Feb-12 00:28N 17°08' W 061°51'0 0.0
2018-Feb-11 23:56N 17°08' W 061°51'0 0.1
2018-Feb-11 23:31N 17°07' W 061°51'1 2.1
2018-Feb-11 23:01N 17°08' W 061°52'510.0
2018-Feb-11 22:31N 17°10' W 061°57'815.0
2018-Feb-11 22:00N 17°15' W 062°03'815.1
2018-Feb-11 21:30N 17°19' W 062°10'815.0
2018-Feb-11 21:00N 17°24' W 062°16'715.4
2018-Feb-11 20:30N 17°28' W 062°22'2914.5
2018-Feb-11 18:31N 17°45' W 062°47'112.9
2018-Feb-11 18:26N 17°46' W 062°48'913.6
2018-Feb-11 17:47N 17°51' W 062°55'815.1
2018-Feb-11 17:17N 17°56' W 063°01'414.5
2018-Feb-11 17:01N 17°58' W 063°04'3 4.7
2018-Feb-11 16:27N 18°01' W 063°03'0 0.0
2018-Feb-11 15:54N 18°01' W 063°03'0 0.0
2018-Feb-11 15:20N 18°01' W 063°03'0 0.0
2018-Feb-11 14:59N 18°01' W 063°03'0 0.0
2018-Feb-11 14:29N 18°01' W 063°03'0 0.0
2018-Feb-11 13:56N 18°01' W 063°03'0 0.0
2018-Feb-11 13:07N 18°01' W 063°03'0 0.0
2018-Feb-11 12:47N 18°01' W 063°03'0 0.0
2018-Feb-11 12:28N 18°01' W 063°03'0 0.0
2018-Feb-11 11:58N 18°01' W 063°03'0 0.0
2018-Feb-11 11:28N 18°01' W 063°03'0 0.0
2018-Feb-11 10:48N 18°01' W 063°03'0 0.0
2018-Feb-11 10:30N 18°01' W 063°03'0 0.0
2018-Feb-11 10:00N 18°01' W 063°03'0 0.3
2018-Feb-11 09:22N 18°00' W 063°03'1 1.7
2018-Feb-11 08:46N 18°00' W 063°04'1 2.3
2018-Feb-11 08:29N 18°00' W 063°05'6 8.2
2018-Feb-11 07:46N 18°01' W 063°11'413.5
2018-Feb-11 07:27N 18°04' W 063°14'613.4
2018-Feb-11 07:00N 18°08' W 063°19'  
2018-Feb-08 08:00N 26°02' W 079°37'917.6
2018-Feb-08 07:30N 25°58' W 079°45'2315.5
2018-Feb-08 06:00N 25°46' W 080°08'3 0.6
2018-Feb-08 01:28N 25°46' W 080°10'0 0.0
2018-Feb-08 00:58N 25°46' W 080°10'0 0.0
2018-Feb-08 00:28N 25°46' W 080°10'0 0.0
2018-Feb-07 23:58N 25°46' W 080°10'0 0.0
2018-Feb-07 23:30N 25°46' W 080°10'0 0.0
2018-Feb-07 23:00N 25°46' W 080°10'0 0.0
2018-Feb-07 22:30N 25°46' W 080°10'0 0.0
2018-Feb-07 21:57N 25°46' W 080°10'0 0.0
2018-Feb-07 21:29N 25°46' W 080°10'  
Track history (hours):
 
Tides and Currents Weather Stations Pressure Air Temp Water Temp Dewpoint Dewpoint Depression Visibility Wind Speed Wind Dir Waves Ship Positions

Seaboard Ocean

Last reported at 2018-Feb-12 12:36 UTC. Time now 2018-Feb-19 16:02 UTC.
Position N 16°13' W 062°02'.

Length 148 m; draft 7.6 m.

Type: Ship. MMSI: 636091731.

Date/timePositionNaut miles runAvg speedWind from/ knotsBaromVisibWave heightAir tempDewpointWater temp
2018-Feb-12 12:36N 16°13' W 062°02'216.0
2018-Feb-12 12:30N 16°14' W 062°02'816.2
2018-Feb-12 12:00N 16°22' W 062°02'816.1
2018-Feb-12 11:30N 16°30' W 062°02'816.3
2018-Feb-12 11:00N 16°38' W 062°01'816.4
2018-Feb-12 10:30N 16°46' W 062°01'816.5
2018-Feb-12 10:00N 16°55' W 061°59'817.0
2018-Feb-12 09:30N 17°03' W 061°58'713.1
2018-Feb-12 09:00N 17°09' W 061°55'4 7.5
2018-Feb-12 08:30N 17°07' W 061°51'0 0.0
2018-Feb-12 07:56N 17°08' W 061°51'0 0.0
2018-Feb-12 07:29N 17°08' W 061°51'0 0.0
2018-Feb-12 06:58N 17°08' W 061°51'0 0.0
2018-Feb-12 06:28N 17°08' W 061°51'0 0.0
2018-Feb-12 05:58N 17°08' W 061°51'0 0.0
2018-Feb-12 05:28N 17°08' W 061°51'0 0.0
2018-Feb-12 05:00N 17°08' W 061°51'0 0.0
2018-Feb-12 04:30N 17°08' W 061°51'0 0.0
2018-Feb-12 04:00N 17°08' W 061°51'0 0.0
2018-Feb-12 03:30N 17°08' W 061°51'0 0.0
2018-Feb-12 02:57N 17°08' W 061°51'0 0.0
2018-Feb-12 02:29N 17°08' W 061°51'0 0.0
2018-Feb-12 01:59N 17°08' W 061°51'0 0.0
2018-Feb-12 01:26N 17°08' W 061°51'0 0.0
2018-Feb-12 00:59N 17°08' W 061°51'0 0.0
2018-Feb-12 00:28N 17°08' W 061°51'0 0.0
2018-Feb-11 23:56N 17°08' W 061°51'0 0.1
2018-Feb-11 23:31N 17°07' W 061°51'1 2.1
2018-Feb-11 23:01N 17°08' W 061°52'510.0
2018-Feb-11 22:31N 17°10' W 061°57'815.0
2018-Feb-11 22:00N 17°15' W 062°03'815.1
2018-Feb-11 21:30N 17°19' W 062°10'815.0
2018-Feb-11 21:00N 17°24' W 062°16'715.4
2018-Feb-11 20:30N 17°28' W 062°22'2914.5
2018-Feb-11 18:31N 17°45' W 062°47'112.9
2018-Feb-11 18:26N 17°46' W 062°48'913.6
2018-Feb-11 17:47N 17°51' W 062°55'815.1
2018-Feb-11 17:17N 17°56' W 063°01'414.5
2018-Feb-11 17:01N 17°58' W 063°04'3 4.7
2018-Feb-11 16:27N 18°01' W 063°03'0 0.0
2018-Feb-11 15:54N 18°01' W 063°03'0 0.0
2018-Feb-11 15:20N 18°01' W 063°03'0 0.0
2018-Feb-11 14:59N 18°01' W 063°03'0 0.0
2018-Feb-11 14:29N 18°01' W 063°03'0 0.0
2018-Feb-11 13:56N 18°01' W 063°03'0 0.0
2018-Feb-11 13:07N 18°01' W 063°03'0 0.0
2018-Feb-11 12:47N 18°01' W 063°03'0 0.0
2018-Feb-11 12:28N 18°01' W 063°03'0 0.0
2018-Feb-11 11:58N 18°01' W 063°03'0 0.0
2018-Feb-11 11:28N 18°01' W 063°03'0 0.0
2018-Feb-11 10:48N 18°01' W 063°03'0 0.0
2018-Feb-11 10:30N 18°01' W 063°03'0 0.0
2018-Feb-11 10:00N 18°01' W 063°03'0 0.3
2018-Feb-11 09:22N 18°00' W 063°03'1 1.7
2018-Feb-11 08:46N 18°00' W 063°04'1 2.3
2018-Feb-11 08:29N 18°00' W 063°05'6 8.2
2018-Feb-11 07:46N 18°01' W 063°11'413.5
2018-Feb-11 07:27N 18°04' W 063°14'613.4
2018-Feb-11 07:00N 18°08' W 063°19'  
2018-Feb-08 08:00N 26°02' W 079°37'917.6
2018-Feb-08 07:30N 25°58' W 079°45'2315.5
2018-Feb-08 06:00N 25°46' W 080°08'3 0.6
2018-Feb-08 01:28N 25°46' W 080°10'0 0.0
2018-Feb-08 00:58N 25°46' W 080°10'0 0.0
2018-Feb-08 00:28N 25°46' W 080°10'0 0.0
2018-Feb-07 23:58N 25°46' W 080°10'0 0.0
2018-Feb-07 23:30N 25°46' W 080°10'0 0.0
2018-Feb-07 23:00N 25°46' W 080°10'0 0.0
2018-Feb-07 22:30N 25°46' W 080°10'0 0.0
2018-Feb-07 21:57N 25°46' W 080°10'0 0.0
2018-Feb-07 21:29N 25°46' W 080°10'  

Dump ship's entire track history